3TX3 weather

Public forecast

Using degrees Fahrenheit for public forecast. Weather courtesy of forecast.io.

Closest aviation weather report (METAR) to Sitton Field

Closest report is Denton Municipal Airport, 7.8 nm (14.5 km) NE. Retrieved 2020/08/10 23:53 UTC (1 hour ago):

KDTO 102353Z 16013KT 10SM CLR 36/18 A2989 RMK AO2 SLP109 T03560178 10378 20339 58020

Closest aviation forecast (TAF) to Sitton Field

Closest forecast is Fort Worth Alliance Airport, 7.9 nm (14.7 km) S. Retrieved 2020-08-11 00:30 UTC (26 minutes ago):

TAF KAFW 102327Z 1100/1124 18014KT P6SM FEW060